sensor_id;sensor_type;location;lat;lon;timestamp;P1;durP1;ratioP1;P2;durP2;ratioP2
23617;SDS011;18207;32.078;34.818;2023-02-01T00:00:27;0.38;;;0.38;;
23617;SDS011;18207;32.078;34.818;2023-02-01T00:03:00;0.63;;;0.40;;
23617;SDS011;18207;32.078;34.818;2023-02-01T00:05:31;0.40;;;0.40;;
23617;SDS011;18207;32.078;34.818;2023-02-01T00:08:02;1.02;;;0.40;;
23617;SDS011;18207;32.078;34.818;2023-02-01T00:10:33;1.02;;;0.80;;
23617;SDS011;18207;32.078;34.818;2023-02-01T00:13:03;1.60;;;0.52;;
23617;SDS011;18207;32.078;34.818;2023-02-01T00:15:35;0.35;;;0.30;;
23617;SDS011;18207;32.078;34.818;2023-02-01T00:18:06;0.80;;;0.50;;
23617;SDS011;18207;32.078;34.818;2023-02-01T00:20:38;1.20;;;0.77;;
23617;SDS011;18207;32.078;34.818;2023-02-01T00:23:13;1.98;;;0.85;;
23617;SDS011;18207;32.078;34.818;2023-02-01T00:25:44;1.55;;;0.73;;
23617;SDS011;18207;32.078;34.818;2023-02-01T00:28:14;0.57;;;0.40;;
23617;SDS011;18207;32.078;34.818;2023-02-01T00:30:44;0.65;;;0.60;;
23617;SDS011;18207;32.078;34.818;2023-02-01T00:33:15;1.90;;;0.63;;
23617;SDS011;18207;32.078;34.818;2023-02-01T00:35:47;0.52;;;0.47;;
23617;SDS011;18207;32.078;34.818;2023-02-01T00:38:17;0.60;;;0.47;;
23617;SDS011;18207;32.078;34.818;2023-02-01T00:40:48;1.13;;;0.50;;
23617;SDS011;18207;32.078;34.818;2023-02-01T00:43:18;1.15;;;0.60;;
23617;SDS011;18207;32.078;34.818;2023-02-01T00:45:48;0.98;;;0.43;;
23617;SDS011;18207;32.078;34.818;2023-02-01T00:48:19;0.40;;;0.30;;
23617;SDS011;18207;32.078;34.818;2023-02-01T00:50:51;2.05;;;0.45;;
23617;SDS011;18207;32.078;34.818;2023-02-01T00:53:22;0.50;;;0.47;;
23617;SDS011;18207;32.078;34.818;2023-02-01T00:55:52;1.38;;;0.50;;
23617;SDS011;18207;32.078;34.818;2023-02-01T00:58:23;0.43;;;0.40;;
23617;SDS011;18207;32.078;34.818;2023-02-01T01:01:00;0.73;;;0.60;;
23617;SDS011;18207;32.078;34.818;2023-02-01T01:03:34;0.80;;;0.70;;
23617;SDS011;18207;32.078;34.818;2023-02-01T01:06:09;1.33;;;0.50;;
23617;SDS011;18207;32.078;34.818;2023-02-01T01:08:41;0.32;;;0.30;;
23617;SDS011;18207;32.078;34.818;2023-02-01T01:11:13;0.75;;;0.57;;
23617;SDS011;18207;32.078;34.818;2023-02-01T01:13:46;1.13;;;0.65;;
23617;SDS011;18207;32.078;34.818;2023-02-01T01:16:17;1.52;;;0.80;;
23617;SDS011;18207;32.078;34.818;2023-02-01T01:18:49;0.80;;;0.80;;
23617;SDS011;18207;32.078;34.818;2023-02-01T01:21:22;0.75;;;0.65;;
23617;SDS011;18207;32.078;34.818;2023-02-01T01:23:52;0.73;;;0.45;;
23617;SDS011;18207;32.078;34.818;2023-02-01T01:26:23;0.60;;;0.60;;
23617;SDS011;18207;32.078;34.818;2023-02-01T01:28:56;0.63;;;0.50;;
23617;SDS011;18207;32.078;34.818;2023-02-01T01:31:28;0.47;;;0.45;;
23617;SDS011;18207;32.078;34.818;2023-02-01T01:33:59;1.33;;;0.60;;
23617;SDS011;18207;32.078;34.818;2023-02-01T01:36:32;0.85;;;0.50;;
23617;SDS011;18207;32.078;34.818;2023-02-01T01:39:02;0.40;;;0.30;;
23617;SDS011;18207;32.078;34.818;2023-02-01T01:41:32;0.45;;;0.30;;
23617;SDS011;18207;32.078;34.818;2023-02-01T01:44:04;0.75;;;0.40;;
23617;SDS011;18207;32.078;34.818;2023-02-01T01:46:57;0.60;;;0.40;;
23617;SDS011;18207;32.078;34.818;2023-02-01T01:49:28;0.50;;;0.40;;
23617;SDS011;18207;32.078;34.818;2023-02-01T01:52:00;1.38;;;0.40;;
23617;SDS011;18207;32.078;34.818;2023-02-01T01:54:32;0.30;;;0.30;;
23617;SDS011;18207;32.078;34.818;2023-02-01T01:57:09;2.33;;;0.50;;
23617;SDS011;18207;32.078;34.818;2023-02-01T01:59:46;1.15;;;0.70;;
23617;SDS011;18207;32.078;34.818;2023-02-01T02:02:24;0.65;;;0.57;;
23617;SDS011;18207;32.078;34.818;2023-02-01T02:04:54;0.65;;;0.60;;
23617;SDS011;18207;32.078;34.818;2023-02-01T02:07:26;1.05;;;0.60;;
23617;SDS011;18207;32.078;34.818;2023-02-01T02:10:03;1.20;;;0.50;;
23617;SDS011;18207;32.078;34.818;2023-02-01T02:12:38;0.68;;;0.50;;
23617;SDS011;18207;32.078;34.818;2023-02-01T02:15:12;0.98;;;0.73;;
23617;SDS011;18207;32.078;34.818;2023-02-01T02:17:48;0.50;;;0.50;;
23617;SDS011;18207;32.078;34.818;2023-02-01T02:20:46;0.50;;;0.50;;
23617;SDS011;18207;32.078;34.818;2023-02-01T02:23:51;0.95;;;0.90;;
23617;SDS011;18207;32.078;34.818;2023-02-01T02:27:08;1.17;;;0.68;;
23617;SDS011;18207;32.078;34.818;2023-02-01T02:30:19;0.50;;;0.50;;
23617;SDS011;18207;32.078;34.818;2023-02-01T02:36:30;1.27;;;0.68;;
23617;SDS011;18207;32.078;34.818;2023-02-01T02:39:15;0.90;;;0.60;;
23617;SDS011;18207;32.078;34.818;2023-02-01T02:41:58;0.50;;;0.50;;
23617;SDS011;18207;32.078;34.818;2023-02-01T02:44:54;1.30;;;0.60;;
23617;SDS011;18207;32.078;34.818;2023-02-01T02:47:52;1.42;;;0.60;;
23617;SDS011;18207;32.078;34.818;2023-02-01T02:50:38;0.88;;;0.50;;
23617;SDS011;18207;32.078;34.818;2023-02-01T02:53:34;1.17;;;0.73;;
23617;SDS011;18207;32.078;34.818;2023-02-01T02:56:43;3.78;;;0.85;;
23617;SDS011;18207;32.078;34.818;2023-02-01T02:59:31;1.20;;;0.60;;
23617;SDS011;18207;32.078;34.818;2023-02-01T03:02:21;2.25;;;1.00;;
23617;SDS011;18207;32.078;34.818;2023-02-01T03:05:10;0.90;;;0.50;;
23617;SDS011;18207;32.078;34.818;2023-02-01T03:10:46;1.30;;;1.13;;
23617;SDS011;18207;32.078;34.818;2023-02-01T03:13:28;1.25;;;0.90;;
23617;SDS011;18207;32.078;34.818;2023-02-01T03:16:07;1.10;;;0.80;;
23617;SDS011;18207;32.078;34.818;2023-02-01T03:18:54;0.75;;;0.52;;
23617;SDS011;18207;32.078;34.818;2023-02-01T03:21:31;1.75;;;0.88;;
23617;SDS011;18207;32.078;34.818;2023-02-01T03:24:10;1.25;;;0.80;;
23617;SDS011;18207;32.078;34.818;2023-02-01T03:26:45;1.38;;;0.80;;
23617;SDS011;18207;32.078;34.818;2023-02-01T03:29:24;0.52;;;0.52;;
23617;SDS011;18207;32.078;34.818;2023-02-01T03:32:04;1.27;;;0.90;;
23617;SDS011;18207;32.078;34.818;2023-02-01T03:34:36;1.55;;;0.70;;
23617;SDS011;18207;32.078;34.818;2023-02-01T03:37:08;1.55;;;0.70;;
23617;SDS011;18207;32.078;34.818;2023-02-01T03:39:45;1.10;;;0.90;;
23617;SDS011;18207;32.078;34.818;2023-02-01T03:42:22;1.02;;;0.55;;
23617;SDS011;18207;32.078;34.818;2023-02-01T03:45:00;2.28;;;0.95;;
23617;SDS011;18207;32.078;34.818;2023-02-01T03:47:39;0.98;;;0.82;;
23617;SDS011;18207;32.078;34.818;2023-02-01T03:50:14;0.77;;;0.77;;
23617;SDS011;18207;32.078;34.818;2023-02-01T03:52:48;1.08;;;0.80;;
23617;SDS011;18207;32.078;34.818;2023-02-01T03:55:25;0.75;;;0.75;;
23617;SDS011;18207;32.078;34.818;2023-02-01T03:58:00;1.20;;;0.80;;
23617;SDS011;18207;32.078;34.818;2023-02-01T04:00:36;1.08;;;0.80;;
23617;SDS011;18207;32.078;34.818;2023-02-01T04:03:07;0.80;;;0.80;;
23617;SDS011;18207;32.078;34.818;2023-02-01T04:05:38;1.15;;;0.90;;
23617;SDS011;18207;32.078;34.818;2023-02-01T04:08:08;0.80;;;0.80;;
23617;SDS011;18207;32.078;34.818;2023-02-01T04:10:40;2.15;;;0.80;;
23617;SDS011;18207;32.078;34.818;2023-02-01T04:13:11;0.70;;;0.60;;
23617;SDS011;18207;32.078;34.818;2023-02-01T04:15:41;1.17;;;1.00;;
23617;SDS011;18207;32.078;34.818;2023-02-01T04:18:12;0.90;;;0.80;;
23617;SDS011;18207;32.078;34.818;2023-02-01T04:20:43;1.20;;;0.90;;
23617;SDS011;18207;32.078;34.818;2023-02-01T04:23:14;1.88;;;0.80;;
23617;SDS011;18207;32.078;34.818;2023-02-01T04:25:51;1.33;;;0.90;;
23617;SDS011;18207;32.078;34.818;2023-02-01T04:28:23;1.35;;;1.02;;
23617;SDS011;18207;32.078;34.818;2023-02-01T04:30:54;1.38;;;0.85;;
23617;SDS011;18207;32.078;34.818;2023-02-01T04:33:25;1.65;;;1.15;;
23617;SDS011;18207;32.078;34.818;2023-02-01T04:35:56;1.05;;;0.50;;
23617;SDS011;18207;32.078;34.818;2023-02-01T04:38:27;0.88;;;0.75;;
23617;SDS011;18207;32.078;34.818;2023-02-01T04:41:00;0.95;;;0.60;;
23617;SDS011;18207;32.078;34.818;2023-02-01T04:43:31;1.27;;;0.68;;
23617;SDS011;18207;32.078;34.818;2023-02-01T04:46:01;0.60;;;0.60;;
23617;SDS011;18207;32.078;34.818;2023-02-01T04:48:32;0.68;;;0.45;;
23617;SDS011;18207;32.078;34.818;2023-02-01T04:51:02;0.77;;;0.60;;
23617;SDS011;18207;32.078;34.818;2023-02-01T04:53:32;0.22;;;0.22;;
23617;SDS011;18207;32.078;34.818;2023-02-01T04:56:06;0.75;;;0.68;;
23617;SDS011;18207;32.078;34.818;2023-02-01T04:58:36;0.40;;;0.40;;
23617;SDS011;18207;32.078;34.818;2023-02-01T05:01:07;0.40;;;0.40;;
23617;SDS011;18207;32.078;34.818;2023-02-01T05:03:38;0.65;;;0.47;;
23617;SDS011;18207;32.078;34.818;2023-02-01T05:06:08;0.73;;;0.43;;
23617;SDS011;18207;32.078;34.818;2023-02-01T05:08:39;0.47;;;0.47;;
23617;SDS011;18207;32.078;34.818;2023-02-01T05:11:11;1.67;;;0.60;;
23617;SDS011;18207;32.078;34.818;2023-02-01T05:13:55;1.63;;;0.80;;
23617;SDS011;18207;32.078;34.818;2023-02-01T05:16:28;0.47;;;0.40;;
23617;SDS011;18207;32.078;34.818;2023-02-01T05:18:58;0.60;;;0.38;;
23617;SDS011;18207;32.078;34.818;2023-02-01T05:21:29;0.80;;;0.70;;
23617;SDS011;18207;32.078;34.818;2023-02-01T05:24:00;1.35;;;0.88;;
23617;SDS011;18207;32.078;34.818;2023-02-01T05:26:42;1.75;;;0.85;;
23617;SDS011;18207;32.078;34.818;2023-02-01T05:29:13;1.10;;;0.80;;
23617;SDS011;18207;32.078;34.818;2023-02-01T05:31:45;1.08;;;0.88;;
23617;SDS011;18207;32.078;34.818;2023-02-01T05:34:16;1.23;;;1.13;;
23617;SDS011;18207;32.078;34.818;2023-02-01T05:36:47;1.05;;;0.90;;
23617;SDS011;18207;32.078;34.818;2023-02-01T05:39:18;2.13;;;1.02;;
23617;SDS011;18207;32.078;34.818;2023-02-01T05:41:50;1.27;;;1.17;;
23617;SDS011;18207;32.078;34.818;2023-02-01T05:44:20;1.85;;;1.30;;
23617;SDS011;18207;32.078;34.818;2023-02-01T05:46:51;2.08;;;1.25;;
23617;SDS011;18207;32.078;34.818;2023-02-01T05:49:21;1.50;;;1.10;;
23617;SDS011;18207;32.078;34.818;2023-02-01T05:51:51;1.52;;;1.08;;
23617;SDS011;18207;32.078;34.818;2023-02-01T05:54:23;1.35;;;1.00;;
23617;SDS011;18207;32.078;34.818;2023-02-01T05:56:54;1.13;;;1.00;;
23617;SDS011;18207;32.078;34.818;2023-02-01T05:59:24;1.58;;;0.93;;
23617;SDS011;18207;32.078;34.818;2023-02-01T06:01:55;1.08;;;0.90;;
23617;SDS011;18207;32.078;34.818;2023-02-01T06:04:25;1.90;;;0.85;;
23617;SDS011;18207;32.078;34.818;2023-02-01T06:06:56;1.23;;;1.10;;
23617;SDS011;18207;32.078;34.818;2023-02-01T06:09:26;2.28;;;1.25;;
23617;SDS011;18207;32.078;34.818;2023-02-01T06:11:59;1.33;;;0.93;;
23617;SDS011;18207;32.078;34.818;2023-02-01T06:14:29;0.70;;;0.70;;
23617;SDS011;18207;32.078;34.818;2023-02-01T06:17:00;0.73;;;0.60;;
23617;SDS011;18207;32.078;34.818;2023-02-01T06:19:30;0.80;;;0.55;;
23617;SDS011;18207;32.078;34.818;2023-02-01T06:22:00;1.17;;;0.85;;
23617;SDS011;18207;32.078;34.818;2023-02-01T06:24:33;0.47;;;0.47;;
23617;SDS011;18207;32.078;34.818;2023-02-01T06:27:05;0.73;;;0.57;;
23617;SDS011;18207;32.078;34.818;2023-02-01T06:29:36;0.90;;;0.75;;
23617;SDS011;18207;32.078;34.818;2023-02-01T06:32:07;1.13;;;0.90;;
23617;SDS011;18207;32.078;34.818;2023-02-01T06:34:37;1.48;;;0.85;;
23617;SDS011;18207;32.078;34.818;2023-02-01T06:37:08;1.45;;;0.82;;
23617;SDS011;18207;32.078;34.818;2023-02-01T06:39:39;1.50;;;1.15;;
23617;SDS011;18207;32.078;34.818;2023-02-01T06:42:11;1.45;;;0.85;;
23617;SDS011;18207;32.078;34.818;2023-02-01T06:44:41;1.23;;;0.82;;
23617;SDS011;18207;32.078;34.818;2023-02-01T06:47:12;1.38;;;1.00;;
23617;SDS011;18207;32.078;34.818;2023-02-01T06:49:43;0.93;;;0.50;;
23617;SDS011;18207;32.078;34.818;2023-02-01T06:52:14;1.48;;;0.80;;
23617;SDS011;18207;32.078;34.818;2023-02-01T06:54:45;0.93;;;0.85;;
23617;SDS011;18207;32.078;34.818;2023-02-01T06:57:17;1.42;;;0.93;;
23617;SDS011;18207;32.078;34.818;2023-02-01T06:59:48;3.03;;;1.00;;
23617;SDS011;18207;32.078;34.818;2023-02-01T07:02:18;1.10;;;0.88;;
23617;SDS011;18207;32.078;34.818;2023-02-01T07:04:48;1.05;;;0.95;;
23617;SDS011;18207;32.078;34.818;2023-02-01T07:07:19;1.60;;;1.10;;
23617;SDS011;18207;32.078;34.818;2023-02-01T07:09:49;2.00;;;1.30;;
23617;SDS011;18207;32.078;34.818;2023-02-01T07:12:22;1.60;;;1.50;;
23617;SDS011;18207;32.078;34.818;2023-02-01T07:14:52;1.75;;;1.55;;
23617;SDS011;18207;32.078;34.818;2023-02-01T07:17:23;1.35;;;1.20;;
23617;SDS011;18207;32.078;34.818;2023-02-01T07:19:53;1.88;;;1.40;;
23617;SDS011;18207;32.078;34.818;2023-02-01T07:22:23;2.03;;;1.40;;
23617;SDS011;18207;32.078;34.818;2023-02-01T07:24:54;9.07;;;1.67;;
23617;SDS011;18207;32.078;34.818;2023-02-01T07:27:28;2.40;;;1.60;;
23617;SDS011;18207;32.078;34.818;2023-02-01T07:29:59;1.83;;;1.52;;
23617;SDS011;18207;32.078;34.818;2023-02-01T07:32:30;1.30;;;1.20;;
23617;SDS011;18207;32.078;34.818;2023-02-01T07:35:01;3.17;;;1.50;;
23617;SDS011;18207;32.078;34.818;2023-02-01T07:37:31;1.20;;;1.10;;
23617;SDS011;18207;32.078;34.818;2023-02-01T07:40:02;3.85;;;1.67;;
23617;SDS011;18207;32.078;34.818;2023-02-01T07:42:36;2.72;;;1.50;;
23617;SDS011;18207;32.078;34.818;2023-02-01T07:45:07;2.15;;;1.40;;
23617;SDS011;18207;32.078;34.818;2023-02-01T07:47:47;3.70;;;1.67;;
23617;SDS011;18207;32.078;34.818;2023-02-01T07:50:17;1.33;;;1.20;;
23617;SDS011;18207;32.078;34.818;2023-02-01T07:52:48;4.03;;;1.50;;
23617;SDS011;18207;32.078;34.818;2023-02-01T07:55:20;2.20;;;1.48;;
23617;SDS011;18207;32.078;34.818;2023-02-01T07:57:53;1.73;;;1.15;;
23617;SDS011;18207;32.078;34.818;2023-02-01T08:00:27;4.20;;;1.45;;
23617;SDS011;18207;32.078;34.818;2023-02-01T08:03:14;2.17;;;1.73;;
23617;SDS011;18207;32.078;34.818;2023-02-01T08:05:44;1.73;;;1.50;;
23617;SDS011;18207;32.078;34.818;2023-02-01T08:08:15;1.73;;;1.42;;
23617;SDS011;18207;32.078;34.818;2023-02-01T08:10:45;4.65;;;1.48;;
23617;SDS011;18207;32.078;34.818;2023-02-01T08:13:18;1.50;;;1.40;;
23617;SDS011;18207;32.078;34.818;2023-02-01T08:15:48;3.42;;;1.65;;
23617;SDS011;18207;32.078;34.818;2023-02-01T08:18:19;2.17;;;1.67;;
23617;SDS011;18207;32.078;34.818;2023-02-01T08:20:49;4.55;;;1.63;;
23617;SDS011;18207;32.078;34.818;2023-02-01T08:23:21;2.25;;;1.13;;
23617;SDS011;18207;32.078;34.818;2023-02-01T08:25:52;2.55;;;1.52;;
23617;SDS011;18207;32.078;34.818;2023-02-01T08:28:24;1.80;;;1.13;;
23617;SDS011;18207;32.078;34.818;2023-02-01T08:30:55;2.88;;;1.42;;
23617;SDS011;18207;32.078;34.818;2023-02-01T08:33:26;2.03;;;1.27;;
23617;SDS011;18207;32.078;34.818;2023-02-01T08:35:56;1.70;;;1.30;;
23617;SDS011;18207;32.078;34.818;2023-02-01T08:38:29;3.00;;;1.38;;
23617;SDS011;18207;32.078;34.818;2023-02-01T08:41:03;2.75;;;1.40;;
23617;SDS011;18207;32.078;34.818;2023-02-01T08:43:38;3.50;;;1.63;;
23617;SDS011;18207;32.078;34.818;2023-02-01T08:46:09;2.50;;;1.60;;
23617;SDS011;18207;32.078;34.818;2023-02-01T08:48:40;2.03;;;1.40;;
23617;SDS011;18207;32.078;34.818;2023-02-01T08:51:12;2.65;;;1.60;;
23617;SDS011;18207;32.078;34.818;2023-02-01T08:53:44;2.00;;;1.63;;
23617;SDS011;18207;32.078;34.818;2023-02-01T08:56:16;2.70;;;1.60;;
23617;SDS011;18207;32.078;34.818;2023-02-01T08:58:50;2.60;;;1.38;;
23617;SDS011;18207;32.078;34.818;2023-02-01T09:01:25;2.33;;;1.30;;
23617;SDS011;18207;32.078;34.818;2023-02-01T09:03:56;2.75;;;1.60;;
23617;SDS011;18207;32.078;34.818;2023-02-01T09:06:26;2.55;;;1.30;;
23617;SDS011;18207;32.078;34.818;2023-02-01T09:08:57;1.75;;;1.23;;
23617;SDS011;18207;32.078;34.818;2023-02-01T09:11:27;1.15;;;0.95;;
23617;SDS011;18207;32.078;34.818;2023-02-01T09:13:59;3.53;;;1.35;;
23617;SDS011;18207;32.078;34.818;2023-02-01T09:16:29;3.53;;;1.23;;
23617;SDS011;18207;32.078;34.818;2023-02-01T09:19:07;2.95;;;1.50;;
23617;SDS011;18207;32.078;34.818;2023-02-01T09:21:52;1.10;;;0.88;;
23617;SDS011;18207;32.078;34.818;2023-02-01T09:24:23;1.33;;;1.20;;
23617;SDS011;18207;32.078;34.818;2023-02-01T09:26:54;1.42;;;0.95;;
23617;SDS011;18207;32.078;34.818;2023-02-01T09:29:27;3.22;;;1.42;;
23617;SDS011;18207;32.078;34.818;2023-02-01T09:31:58;3.28;;;1.27;;
23617;SDS011;18207;32.078;34.818;2023-02-01T09:34:30;1.55;;;1.20;;
23617;SDS011;18207;32.078;34.818;2023-02-01T09:37:01;1.75;;;0.93;;
23617;SDS011;18207;32.078;34.818;2023-02-01T09:39:32;0.90;;;0.90;;
23617;SDS011;18207;32.078;34.818;2023-02-01T09:42:06;2.45;;;1.10;;
23617;SDS011;18207;32.078;34.818;2023-02-01T09:44:58;1.52;;;1.20;;
23617;SDS011;18207;32.078;34.818;2023-02-01T09:47:46;1.20;;;1.02;;
23617;SDS011;18207;32.078;34.818;2023-02-01T09:50:27;1.85;;;1.20;;
23617;SDS011;18207;32.078;34.818;2023-02-01T09:53:05;1.67;;;1.15;;
23617;SDS011;18207;32.078;34.818;2023-02-01T09:55:45;2.28;;;1.30;;
23617;SDS011;18207;32.078;34.818;2023-02-01T09:58:19;2.15;;;1.30;;
23617;SDS011;18207;32.078;34.818;2023-02-01T10:01:02;2.92;;;1.20;;
23617;SDS011;18207;32.078;34.818;2023-02-01T10:03:43;1.30;;;1.20;;
23617;SDS011;18207;32.078;34.818;2023-02-01T10:06:24;1.95;;;1.50;;
23617;SDS011;18207;32.078;34.818;2023-02-01T10:09:15;2.47;;;1.17;;
23617;SDS011;18207;32.078;34.818;2023-02-01T10:12:17;2.30;;;1.08;;
23617;SDS011;18207;32.078;34.818;2023-02-01T10:15:24;3.72;;;1.40;;
23617;SDS011;18207;32.078;34.818;2023-02-01T10:18:13;2.50;;;1.50;;
23617;SDS011;18207;32.078;34.818;2023-02-01T10:21:13;1.92;;;1.20;;
23617;SDS011;18207;32.078;34.818;2023-02-01T10:24:02;3.33;;;1.50;;
23617;SDS011;18207;32.078;34.818;2023-02-01T10:26:53;5.63;;;1.20;;
23617;SDS011;18207;32.078;34.818;2023-02-01T10:29:32;3.22;;;1.63;;
23617;SDS011;18207;32.078;34.818;2023-02-01T10:32:10;2.63;;;1.40;;
23617;SDS011;18207;32.078;34.818;2023-02-01T10:34:47;2.10;;;1.20;;
23617;SDS011;18207;32.078;34.818;2023-02-01T10:37:37;3.17;;;1.20;;
23617;SDS011;18207;32.078;34.818;2023-02-01T10:40:18;2.25;;;1.20;;
23617;SDS011;18207;32.078;34.818;2023-02-01T10:42:54;3.03;;;1.30;;
23617;SDS011;18207;32.078;34.818;2023-02-01T10:45:30;2.92;;;1.48;;
23617;SDS011;18207;32.078;34.818;2023-02-01T10:48:02;1.60;;;1.38;;
23617;SDS011;18207;32.078;34.818;2023-02-01T10:50:37;2.35;;;1.15;;
23617;SDS011;18207;32.078;34.818;2023-02-01T10:53:18;2.83;;;1.58;;
23617;SDS011;18207;32.078;34.818;2023-02-01T10:55:54;4.03;;;1.67;;
23617;SDS011;18207;32.078;34.818;2023-02-01T10:58:26;2.50;;;1.77;;
23617;SDS011;18207;32.078;34.818;2023-02-01T11:00:59;2.38;;;1.45;;
23617;SDS011;18207;32.078;34.818;2023-02-01T11:03:33;3.28;;;1.35;;
23617;SDS011;18207;32.078;34.818;2023-02-01T11:06:13;1.83;;;1.30;;
23617;SDS011;18207;32.078;34.818;2023-02-01T11:08:56;1.23;;;1.10;;
23617;SDS011;18207;32.078;34.818;2023-02-01T11:11:29;1.88;;;1.23;;
23617;SDS011;18207;32.078;34.818;2023-02-01T11:14:01;2.30;;;1.30;;
23617;SDS011;18207;32.078;34.818;2023-02-01T11:16:47;1.95;;;1.05;;
23617;SDS011;18207;32.078;34.818;2023-02-01T11:19:21;3.13;;;1.00;;
23617;SDS011;18207;32.078;34.818;2023-02-01T11:21:55;1.38;;;1.15;;
23617;SDS011;18207;32.078;34.818;2023-02-01T11:24:29;1.73;;;1.10;;
23617;SDS011;18207;32.078;34.818;2023-02-01T11:27:12;1.58;;;1.13;;
23617;SDS011;18207;32.078;34.818;2023-02-01T11:29:54;2.60;;;1.00;;
23617;SDS011;18207;32.078;34.818;2023-02-01T11:32:30;1.33;;;1.10;;
23617;SDS011;18207;32.078;34.818;2023-02-01T11:35:02;1.90;;;1.00;;
23617;SDS011;18207;32.078;34.818;2023-02-01T11:37:38;1.08;;;0.80;;
23617;SDS011;18207;32.078;34.818;2023-02-01T11:40:22;1.05;;;0.80;;
23617;SDS011;18207;32.078;34.818;2023-02-01T11:42:58;2.28;;;0.98;;
23617;SDS011;18207;32.078;34.818;2023-02-01T11:45:37;2.08;;;1.02;;
23617;SDS011;18207;32.078;34.818;2023-02-01T11:48:09;1.38;;;0.55;;
23617;SDS011;18207;32.078;34.818;2023-02-01T11:50:55;1.75;;;1.00;;
23617;SDS011;18207;32.078;34.818;2023-02-01T11:54:07;0.70;;;0.70;;
23617;SDS011;18207;32.078;34.818;2023-02-01T11:57:07;1.10;;;0.80;;
23617;SDS011;18207;32.078;34.818;2023-02-01T12:00:02;1.95;;;1.10;;
23617;SDS011;18207;32.078;34.818;2023-02-01T12:03:13;1.15;;;0.75;;
23617;SDS011;18207;32.078;34.818;2023-02-01T12:06:17;1.42;;;1.10;;
23617;SDS011;18207;32.078;34.818;2023-02-01T12:09:05;1.50;;;0.98;;
23617;SDS011;18207;32.078;34.818;2023-02-01T12:12:03;1.52;;;0.90;;
23617;SDS011;18207;32.078;34.818;2023-02-01T12:15:01;2.70;;;1.10;;
23617;SDS011;18207;32.078;34.818;2023-02-01T12:17:52;1.42;;;1.27;;
23617;SDS011;18207;32.078;34.818;2023-02-01T12:21:17;1.35;;;0.60;;
23617;SDS011;18207;32.078;34.818;2023-02-01T12:31:12;1.08;;;0.38;;
23617;SDS011;18207;32.078;34.818;2023-02-01T12:34:07;1.42;;;0.60;;
23617;SDS011;18207;32.078;34.818;2023-02-01T12:37:00;1.20;;;0.45;;
23617;SDS011;18207;32.078;34.818;2023-02-01T12:39:46;1.17;;;0.45;;
23617;SDS011;18207;32.078;34.818;2023-02-01T12:42:28;0.47;;;0.43;;
23617;SDS011;18207;32.078;34.818;2023-02-01T12:45:12;0.82;;;0.50;;
23617;SDS011;18207;32.078;34.818;2023-02-01T12:47:54;0.68;;;0.38;;
23617;SDS011;18207;32.078;34.818;2023-02-01T12:50:31;1.73;;;0.82;;
23617;SDS011;18207;32.078;34.818;2023-02-01T12:53:12;0.82;;;0.30;;
23617;SDS011;18207;32.078;34.818;2023-02-01T12:55:53;0.50;;;0.30;;
23617;SDS011;18207;32.078;34.818;2023-02-01T12:58:30;0.38;;;0.28;;
23617;SDS011;18207;32.078;34.818;2023-02-01T13:01:14;0.88;;;0.40;;
23617;SDS011;18207;32.078;34.818;2023-02-01T13:03:52;0.47;;;0.20;;
23617;SDS011;18207;32.078;34.818;2023-02-01T13:06:34;0.80;;;0.30;;
23617;SDS011;18207;32.078;34.818;2023-02-01T13:09:14;0.22;;;0.22;;
23617;SDS011;18207;32.078;34.818;2023-02-01T13:11:55;0.73;;;0.30;;
23617;SDS011;18207;32.078;34.818;2023-02-01T13:14:36;0.20;;;0.20;;
23617;SDS011;18207;32.078;34.818;2023-02-01T13:17:18;0.30;;;0.25;;
23617;SDS011;18207;32.078;34.818;2023-02-01T13:19:53;0.68;;;0.30;;
23617;SDS011;18207;32.078;34.818;2023-02-01T13:22:30;0.30;;;0.20;;
23617;SDS011;18207;32.078;34.818;2023-02-01T13:25:11;0.82;;;0.30;;
23617;SDS011;18207;32.078;34.818;2023-02-01T13:27:48;0.68;;;0.38;;
23617;SDS011;18207;32.078;34.818;2023-02-01T13:30:22;0.20;;;0.20;;
23617;SDS011;18207;32.078;34.818;2023-02-01T13:33:06;0.50;;;0.40;;
23617;SDS011;18207;32.078;34.818;2023-02-01T13:36:28;0.55;;;0.25;;
23617;SDS011;18207;32.078;34.818;2023-02-01T13:39:26;0.52;;;0.20;;
23617;SDS011;18207;32.078;34.818;2023-02-01T13:42:28;0.82;;;0.40;;
23617;SDS011;18207;32.078;34.818;2023-02-01T13:45:04;0.57;;;0.22;;
23617;SDS011;18207;32.078;34.818;2023-02-01T13:47:44;0.10;;;0.10;;
23617;SDS011;18207;32.078;34.818;2023-02-01T13:50:23;1.45;;;0.38;;
23617;SDS011;18207;32.078;34.818;2023-02-01T13:53:03;0.50;;;0.40;;
23617;SDS011;18207;32.078;34.818;2023-02-01T13:55:45;1.90;;;0.40;;
23617;SDS011;18207;32.078;34.818;2023-02-01T13:58:29;0.38;;;0.38;;
23617;SDS011;18207;32.078;34.818;2023-02-01T14:04:06;0.60;;;0.38;;
23617;SDS011;18207;32.078;34.818;2023-02-01T14:07:20;0.75;;;0.55;;
23617;SDS011;18207;32.078;34.818;2023-02-01T14:09:52;1.08;;;0.70;;
23617;SDS011;18207;32.078;34.818;2023-02-01T14:15:35;1.10;;;0.50;;
23617;SDS011;18207;32.078;34.818;2023-02-01T14:21:29;0.40;;;0.30;;
23617;SDS011;18207;32.078;34.818;2023-02-01T14:24:13;1.90;;;0.70;;
23617;SDS011;18207;32.078;34.818;2023-02-01T14:26:52;0.38;;;0.38;;
23617;SDS011;18207;32.078;34.818;2023-02-01T14:29:26;0.80;;;0.50;;
23617;SDS011;18207;32.078;34.818;2023-02-01T14:32:03;0.95;;;0.60;;
23617;SDS011;18207;32.078;34.818;2023-02-01T14:34:40;0.20;;;0.20;;
23617;SDS011;18207;32.078;34.818;2023-02-01T14:37:25;0.95;;;0.60;;
23617;SDS011;18207;32.078;34.818;2023-02-01T14:40:03;0.60;;;0.40;;
23617;SDS011;18207;32.078;34.818;2023-02-01T14:42:45;0.75;;;0.50;;
23617;SDS011;18207;32.078;34.818;2023-02-01T14:51:16;0.90;;;0.40;;
23617;SDS011;18207;32.078;34.818;2023-02-01T14:53:49;0.77;;;0.47;;
23617;SDS011;18207;32.078;34.818;2023-02-01T14:56:22;1.25;;;0.70;;
23617;SDS011;18207;32.078;34.818;2023-02-01T14:58:57;0.93;;;0.60;;
23617;SDS011;18207;32.078;34.818;2023-02-01T15:01:38;0.75;;;0.50;;
23617;SDS011;18207;32.078;34.818;2023-02-01T15:04:19;0.63;;;0.50;;
23617;SDS011;18207;32.078;34.818;2023-02-01T15:06:55;1.02;;;0.38;;
23617;SDS011;18207;32.078;34.818;2023-02-01T15:09:34;0.40;;;0.40;;
23617;SDS011;18207;32.078;34.818;2023-02-01T15:12:16;0.75;;;0.60;;
23617;SDS011;18207;32.078;34.818;2023-02-01T15:15:08;0.82;;;0.50;;
23617;SDS011;18207;32.078;34.818;2023-02-01T15:17:49;0.77;;;0.57;;
23617;SDS011;18207;32.078;34.818;2023-02-01T15:20:22;1.15;;;0.75;;
23617;SDS011;18207;32.078;34.818;2023-02-01T15:22:56;0.68;;;0.45;;
23617;SDS011;18207;32.078;34.818;2023-02-01T15:25:29;2.70;;;0.85;;
23617;SDS011;18207;32.078;34.818;2023-02-01T15:28:08;0.63;;;0.60;;
23617;SDS011;18207;32.078;34.818;2023-02-01T15:30:51;0.88;;;0.47;;
23617;SDS011;18207;32.078;34.818;2023-02-01T15:33:26;2.13;;;0.60;;
23617;SDS011;18207;32.078;34.818;2023-02-01T15:36:07;1.10;;;0.70;;
23617;SDS011;18207;32.078;34.818;2023-02-01T15:38:41;1.40;;;0.50;;
23617;SDS011;18207;32.078;34.818;2023-02-01T15:41:13;0.70;;;0.65;;
23617;SDS011;18207;32.078;34.818;2023-02-01T15:43:50;0.90;;;0.65;;
23617;SDS011;18207;32.078;34.818;2023-02-01T15:46:48;0.90;;;0.80;;
23617;SDS011;18207;32.078;34.818;2023-02-01T15:49:22;0.60;;;0.60;;
23617;SDS011;18207;32.078;34.818;2023-02-01T15:51:57;1.27;;;0.77;;
23617;SDS011;18207;32.078;34.818;2023-02-01T15:54:31;0.98;;;0.70;;
23617;SDS011;18207;32.078;34.818;2023-02-01T15:57:14;0.75;;;0.75;;
23617;SDS011;18207;32.078;34.818;2023-02-01T15:59:59;1.77;;;0.60;;